createdAt,value
2023-04-17T00:02:05.662Z,101657.56
2023-04-17T00:04:33.575Z,101649.66
2023-04-17T00:07:03.429Z,101653.19
2023-04-17T00:09:31.346Z,101658.47
2023-04-17T00:11:58.827Z,101660.09
2023-04-17T00:14:26.391Z,101658.31
2023-04-17T00:16:53.925Z,101659.16
2023-04-17T00:19:21.512Z,101661.78
2023-04-17T00:21:48.925Z,101655.56
2023-04-17T00:24:16.267Z,101666.91
2023-04-17T00:26:43.681Z,101658.09
2023-04-17T00:29:11.212Z,101664.22
2023-04-17T00:31:38.804Z,101663.31
2023-04-17T00:34:06.183Z,101660.59
2023-04-17T00:36:33.627Z,101660.53
2023-04-17T00:39:01.361Z,101661.44
2023-04-17T00:41:28.800Z,101657.88
2023-04-17T00:43:56.265Z,101661.28
2023-04-17T00:46:23.771Z,101656.94
2023-04-17T00:48:51.301Z,101661.28
2023-04-17T00:51:18.854Z,101655.97
2023-04-17T00:53:46.622Z,101662.09
2023-04-17T00:56:14.291Z,101669.16
2023-04-17T00:58:41.827Z,101669.94
2023-04-17T01:01:09.346Z,101657.59
2023-04-17T01:03:36.991Z,101671.63
2023-04-17T01:06:04.537Z,101661.97
2023-04-17T01:08:42.657Z,101669.91
2023-04-17T01:11:11.082Z,101665.41
2023-04-17T01:13:48.753Z,101662.72
2023-04-17T01:16:16.829Z,101667.00
2023-04-17T01:18:44.467Z,101665.28
2023-04-17T01:21:11.913Z,101664.25
2023-04-17T01:23:48.701Z,101661.59
2023-04-17T01:26:34.407Z,101667.72
2023-04-17T01:29:01.780Z,101669.47
2023-04-17T01:31:29.514Z,101670.31
2023-04-17T01:33:56.888Z,101674.63
2023-04-17T01:36:24.316Z,101673.72
2023-04-17T01:38:51.654Z,101681.66
2023-04-17T01:41:18.754Z,101684.22
2023-04-17T01:43:47.305Z,101683.34
2023-04-17T01:46:14.796Z,101686.88
2023-04-17T01:48:42.302Z,101691.25
2023-04-17T01:51:09.680Z,101687.66
2023-04-17T01:53:37.982Z,101693.84
2023-04-17T01:56:05.603Z,101692.03
2023-04-17T01:58:32.964Z,101699.94
2023-04-17T02:01:00.636Z,101700.84
2023-04-17T02:03:28.192Z,101692.88
2023-04-17T02:05:55.839Z,101701.75
2023-04-17T02:08:23.408Z,101700.00
2023-04-17T02:10:50.884Z,101699.94
2023-04-17T02:13:18.316Z,101701.69
2023-04-17T02:15:45.298Z,101700.78
2023-04-17T02:18:12.763Z,101699.91
2023-04-17T02:20:40.453Z,101705.16
2023-04-17T02:23:08.025Z,101711.28
2023-04-17T02:25:35.382Z,101705.13
2023-04-17T02:28:02.829Z,101708.66
2023-04-17T02:30:30.473Z,101710.44
2023-04-17T02:32:58.511Z,101709.56
2023-04-17T02:35:30.086Z,101713.97
2023-04-17T02:37:57.627Z,101718.31
2023-04-17T02:40:25.077Z,101717.47
2023-04-17T02:42:52.484Z,101722.75
2023-04-17T02:45:19.903Z,101717.50
2023-04-17T02:47:47.733Z,101721.00
2023-04-17T02:50:15.504Z,101714.88
2023-04-17T02:52:42.894Z,101715.72
2023-04-17T02:55:10.394Z,101717.50
2023-04-17T02:57:37.804Z,101721.00
2023-04-17T03:00:08.331Z,101720.09
2023-04-17T03:02:36.524Z,101716.63
2023-04-17T03:05:04.296Z,101720.16
2023-04-17T03:07:31.684Z,101722.78
2023-04-17T03:09:59.365Z,101721.06
2023-04-17T03:12:26.843Z,101716.63
2023-04-17T03:14:54.202Z,101720.16
2023-04-17T03:17:21.702Z,101715.78
2023-04-17T03:19:49.142Z,101713.13
2023-04-17T03:22:16.535Z,101718.41
2023-04-17T03:24:43.958Z,101720.22
2023-04-17T03:27:11.305Z,101714.94
2023-04-17T03:29:38.700Z,101716.69
2023-04-17T03:32:06.240Z,101723.56
2023-04-17T03:34:33.731Z,101717.47
2023-04-17T03:37:01.118Z,101718.31
2023-04-17T03:39:28.466Z,101713.88
2023-04-17T03:41:56.421Z,101721.84
2023-04-17T03:44:23.886Z,101714.75
2023-04-17T03:46:51.237Z,101717.28
2023-04-17T03:49:18.599Z,101714.66
2023-04-17T03:51:46.036Z,101725.31
2023-04-17T03:54:13.482Z,101728.84
2023-04-17T03:56:40.997Z,101730.59
2023-04-17T03:59:08.331Z,101728.84
2023-04-17T04:01:38.611Z,101735.94
2023-04-17T04:04:06.122Z,101734.19
2023-04-17T04:06:33.538Z,101735.94
2023-04-17T04:09:00.916Z,101734.19
2023-04-17T04:11:28.275Z,101744.69
2023-04-17T04:13:55.749Z,101745.63
2023-04-17T04:16:23.119Z,101748.28
2023-04-17T04:18:50.505Z,101754.38
2023-04-17T04:21:17.860Z,101754.44
2023-04-17T04:23:45.673Z,101754.44
2023-04-17T04:26:13.041Z,101744.78
2023-04-17T04:28:40.398Z,101756.25
2023-04-17T04:31:08.230Z,101765.91
2023-04-17T04:33:36.003Z,101760.69
2023-04-17T04:36:03.095Z,101763.31
2023-04-17T04:38:31.286Z,101770.44
2023-04-17T04:41:06.454Z,101766.81
2023-04-17T04:43:34.250Z,101769.50
2023-04-17T04:46:01.658Z,101767.75
2023-04-17T04:48:29.107Z,101769.56
2023-04-17T04:50:56.591Z,101776.69
2023-04-17T04:53:24.667Z,101778.47
2023-04-17T04:55:52.067Z,101772.31
2023-04-17T04:58:19.459Z,101777.63
2023-04-17T05:00:46.919Z,101775.78
2023-04-17T05:03:14.535Z,101781.06
2023-04-17T05:05:43.360Z,101776.63
2023-04-17T05:08:10.745Z,101782.78
2023-04-17T05:10:38.182Z,101781.13
2023-04-17T05:13:05.565Z,101786.38
2023-04-17T05:15:32.964Z,101785.56
2023-04-17T05:18:00.569Z,101786.38
2023-04-17T05:20:28.049Z,101789.13
2023-04-17T05:22:55.806Z,101787.47
2023-04-17T05:25:23.280Z,101789.25
2023-04-17T05:27:50.846Z,101785.72
2023-04-17T05:30:18.246Z,101783.19
2023-04-17T05:32:46.160Z,101785.00
2023-04-17T05:35:13.569Z,101792.06
2023-04-17T05:37:40.965Z,101784.16
2023-04-17T05:40:08.885Z,101785.94
2023-04-17T05:42:36.554Z,101784.25
2023-04-17T05:45:04.958Z,101786.91
2023-04-17T05:47:32.419Z,101782.63
2023-04-17T05:50:00.002Z,101787.91
2023-04-17T05:52:27.396Z,101795.97
2023-04-17T05:54:54.797Z,101790.81
2023-04-17T05:57:22.187Z,101789.97
2023-04-17T05:59:49.593Z,101789.00
2023-04-17T06:02:17.480Z,101786.44
2023-04-17T06:04:45.218Z,101787.31
2023-04-17T06:07:12.786Z,101789.19
2023-04-17T06:09:41.194Z,101788.34
2023-04-17T06:12:15.952Z,101783.94
2023-04-17T06:14:43.844Z,101784.75
2023-04-17T06:17:12.388Z,101782.28
2023-04-17T06:19:39.946Z,101779.72
2023-04-17T06:22:07.508Z,101784.13
2023-04-17T06:24:35.011Z,101786.88
2023-04-17T06:27:03.868Z,101789.50
2023-04-17T06:29:31.339Z,101787.66
2023-04-17T06:31:58.715Z,101791.25
2023-04-17T06:34:26.086Z,101786.13
2023-04-17T06:36:53.668Z,101788.81
2023-04-17T06:39:22.166Z,101791.69
2023-04-17T06:41:50.452Z,101790.91
2023-04-17T06:44:18.417Z,101799.03
2023-04-17T06:46:46.047Z,101792.16
2023-04-17T06:49:13.636Z,101783.19
2023-04-17T06:51:41.542Z,101791.59
2023-04-17T06:54:09.926Z,101795.91
2023-04-17T06:56:37.324Z,101796.38
2023-04-17T06:59:04.814Z,101792.84
2023-04-17T07:01:32.452Z,101798.56
2023-04-17T07:04:00.449Z,101792.41
2023-04-17T07:06:28.863Z,101795.66
2023-04-17T07:08:56.244Z,101784.31
2023-04-17T07:11:23.656Z,101789.50
2023-04-17T07:13:51.408Z,101783.56
2023-04-17T07:16:18.495Z,101800.69
2023-04-17T07:18:45.909Z,101789.47
2023-04-17T07:21:13.272Z,101786.84
2023-04-17T07:23:40.884Z,101771.25
2023-04-17T07:26:08.339Z,101755.44
2023-04-17T07:28:38.246Z,101723.00
2023-04-17T07:31:09.357Z,101675.84
2023-04-17T07:33:40.057Z,101646.44
2023-04-17T07:36:11.435Z,101616.91
2023-04-17T07:38:40.942Z,101571.09
2023-04-17T07:41:08.852Z,101513.56
2023-04-17T07:43:36.429Z,101490.72
2023-04-17T07:46:03.885Z,101462.66
2023-04-17T07:48:32.181Z,101403.75
2023-04-17T07:51:02.356Z,101394.88
2023-04-17T07:53:29.861Z,101375.38
2023-04-17T07:55:58.548Z,101353.06
2023-04-17T07:58:27.342Z,101367.84
2023-04-17T08:00:54.986Z,101354.59
2023-04-17T08:03:24.344Z,101321.50
2023-04-17T08:05:52.158Z,101321.91
2023-04-17T08:08:20.119Z,101317.56
2023-04-17T08:10:47.112Z,101293.59
2023-04-17T08:13:14.574Z,101308.97
2023-04-17T08:15:42.041Z,101293.69
2023-04-17T08:18:10.640Z,101296.56
2023-04-17T08:20:38.340Z,101259.00
2023-04-17T08:23:06.166Z,101284.81
2023-04-17T08:25:33.466Z,101265.06
2023-04-17T08:28:01.117Z,101293.09
2023-04-17T08:30:28.129Z,101293.06
2023-04-17T08:32:57.631Z,101270.03
2023-04-17T08:35:26.678Z,101273.06
2023-04-17T08:37:55.669Z,101245.50
2023-04-17T08:40:25.038Z,101231.44
2023-04-17T08:42:54.080Z,101235.13
2023-04-17T08:45:24.401Z,101229.16
2023-04-17T08:47:51.836Z,101214.22
2023-04-17T08:50:21.852Z,101207.03
2023-04-17T08:52:51.386Z,101196.38
2023-04-17T08:55:25.547Z,101204.72
2023-04-17T08:58:06.765Z,101176.22
2023-04-17T09:00:36.324Z,101189.06
2023-04-17T09:03:08.144Z,101184.72
2023-04-17T09:05:39.026Z,101136.78
2023-04-17T09:08:21.465Z,101150.34
2023-04-17T09:10:51.722Z,101139.78
2023-04-17T09:13:21.840Z,101106.94
2023-04-17T09:16:06.847Z,101088.28
2023-04-17T09:18:36.183Z,101099.03
2023-04-17T09:21:05.640Z,101076.88
2023-04-17T09:23:56.372Z,101065.38
2023-04-17T09:26:27.835Z,101064.53
2023-04-17T09:29:12.640Z,101031.69
2023-04-17T09:31:42.508Z,101043.34
2023-04-17T09:34:13.960Z,101043.50
2023-04-17T09:36:43.757Z,100999.16
2023-04-17T09:39:24.367Z,100975.16
2023-04-17T09:42:03.949Z,100928.94
2023-04-17T09:44:31.859Z,100925.41
2023-04-17T09:47:00.432Z,100969.88
2023-04-17T09:49:49.772Z,100921.91
2023-04-17T09:52:17.526Z,100952.97
2023-04-17T09:54:47.412Z,100915.66
2023-04-17T09:57:14.744Z,100915.66
2023-04-17T09:59:45.497Z,100913.00
2023-04-17T10:02:18.433Z,100905.03
2023-04-17T10:04:47.496Z,100886.31
2023-04-17T10:07:16.498Z,100889.84
2023-04-17T10:09:46.984Z,100870.31
2023-04-17T10:12:19.978Z,100866.75
2023-04-17T10:14:50.975Z,100874.72
2023-04-17T10:17:31.545Z,100862.28
2023-04-17T10:20:23.681Z,100858.69
2023-04-17T10:22:56.469Z,100864.81
2023-04-17T10:25:31.251Z,100876.25
2023-04-17T10:28:00.507Z,100898.59
2023-04-17T10:30:58.772Z,100904.75
2023-04-17T10:33:27.376Z,100871.84
2023-04-17T10:35:55.359Z,100898.44
2023-04-17T10:38:34.408Z,100860.19
2023-04-17T10:41:04.454Z,100874.38
2023-04-17T10:43:32.289Z,100896.50
2023-04-17T10:46:13.642Z,100890.25
2023-04-17T10:48:52.846Z,100915.19
2023-04-17T10:51:29.123Z,100919.66
2023-04-17T10:54:01.871Z,100925.00
2023-04-17T10:56:49.427Z,100944.66
2023-04-17T10:59:19.094Z,100932.19
2023-04-17T11:01:49.051Z,100906.50
2023-04-17T11:04:34.348Z,100915.44
2023-04-17T11:07:02.496Z,100936.78
2023-04-17T11:09:30.177Z,100916.41
2023-04-17T11:12:02.067Z,100935.03
2023-04-17T11:14:31.396Z,100899.56
2023-04-17T11:17:00.573Z,100900.38
2023-04-17T11:19:28.461Z,100927.94
2023-04-17T11:22:01.570Z,100931.53
2023-04-17T11:24:31.330Z,100906.69
2023-04-17T11:27:02.099Z,100888.94
2023-04-17T11:29:29.773Z,100881.00
2023-04-17T11:31:59.181Z,100868.56
2023-04-17T11:34:27.554Z,100891.69
2023-04-17T11:37:01.409Z,100883.75
2023-04-17T11:39:34.328Z,100802.13
2023-04-17T11:42:05.669Z,100791.56
2023-04-17T11:44:33.527Z,100703.72
2023-04-17T11:47:01.588Z,100749.88
2023-04-17T11:49:33.494Z,100686.84
2023-04-17T11:52:02.484Z,100623.84
2023-04-17T11:54:35.952Z,100683.22
2023-04-17T11:57:04.441Z,100643.28
2023-04-17T11:59:38.763Z,100626.41
2023-04-17T12:02:07.899Z,100661.94
2023-04-17T12:04:36.920Z,100667.19
2023-04-17T12:07:06.770Z,100678.75
2023-04-17T12:09:35.656Z,100658.31
2023-04-17T12:12:05.976Z,100705.34
2023-04-17T12:14:33.868Z,100682.25
2023-04-17T12:17:01.470Z,100664.50
2023-04-17T12:19:29.944Z,100644.09
2023-04-17T12:21:59.349Z,100652.09
2023-04-17T12:24:26.878Z,100689.44
2023-04-17T12:26:54.643Z,100725.06
2023-04-17T12:29:36.121Z,100594.72
2023-04-17T12:32:10.788Z,100610.69
2023-04-17T12:34:38.368Z,100565.53
2023-04-17T12:37:07.234Z,100523.00
2023-04-17T12:39:34.702Z,100599.25
2023-04-17T12:42:02.128Z,100585.13
2023-04-17T12:44:29.421Z,100578.03
2023-04-17T12:46:56.771Z,100578.94
2023-04-17T12:49:24.242Z,100578.94
2023-04-17T12:51:51.876Z,100584.25
2023-04-17T12:54:19.443Z,100584.25
2023-04-17T12:56:46.929Z,100601.09
2023-04-17T12:59:14.370Z,100546.19
2023-04-17T13:01:43.205Z,100568.31
2023-04-17T13:04:10.919Z,100555.94
2023-04-17T13:06:38.445Z,100599.31
2023-04-17T13:09:06.336Z,100554.16
2023-04-17T13:11:33.754Z,100510.75
2023-04-17T13:14:01.210Z,100553.28
2023-04-17T13:16:28.716Z,100584.25
2023-04-17T13:18:56.190Z,100564.78
2023-04-17T13:21:23.552Z,100610.78
2023-04-17T13:23:51.866Z,100609.00
2023-04-17T13:26:20.475Z,100568.22
2023-04-17T13:28:48.764Z,100617.72
2023-04-17T13:31:16.318Z,100551.22
2023-04-17T13:33:45.124Z,100589.16
2023-04-17T13:36:12.563Z,100521.84
2023-04-17T13:38:39.907Z,100522.63
2023-04-17T13:41:07.592Z,100531.41
2023-04-17T13:43:35.319Z,100471.09
2023-04-17T13:46:02.794Z,100479.97
2023-04-17T13:48:30.192Z,100443.69
2023-04-17T13:50:57.548Z,100454.13
2023-04-17T13:53:25.126Z,100450.63
2023-04-17T13:55:52.693Z,100446.25
2023-04-17T13:58:20.637Z,100441.72
2023-04-17T14:00:48.260Z,100340.84
2023-04-17T14:03:15.852Z,100382.25
2023-04-17T14:06:01.753Z,100354.81
2023-04-17T14:08:29.332Z,100288.50
2023-04-17T14:10:56.790Z,100321.34
2023-04-17T14:13:24.187Z,100319.47
2023-04-17T14:15:54.229Z,100240.81
2023-04-17T14:18:22.212Z,100218.75
2023-04-17T14:20:52.468Z,100201.84
2023-04-17T14:23:20.753Z,100193.91
2023-04-17T14:25:48.313Z,100208.06
2023-04-17T14:28:16.348Z,100172.78
2023-04-17T14:30:43.760Z,100148.94
2023-04-17T14:33:11.131Z,100153.41
2023-04-17T14:35:40.263Z,100130.44
2023-04-17T14:38:09.161Z,100139.28
2023-04-17T14:40:36.563Z,100094.28
2023-04-17T14:43:04.084Z,100083.75
2023-04-17T14:45:31.539Z,100116.53
2023-04-17T14:47:59.030Z,100173.03
2023-04-17T14:50:26.374Z,100106.88
2023-04-17T14:52:55.830Z,100107.66
2023-04-17T14:55:24.066Z,100150.09
2023-04-17T14:57:51.625Z,100114.81
2023-04-17T15:00:21.119Z,100106.06
2023-04-17T15:02:49.198Z,100135.19
2023-04-17T15:05:21.066Z,100096.44
2023-04-17T15:07:48.609Z,100092.94
2023-04-17T15:10:16.834Z,100094.69
2023-04-17T15:12:44.317Z,100099.09
2023-04-17T15:15:12.077Z,100131.78
2023-04-17T15:17:39.587Z,100103.50
2023-04-17T15:20:07.597Z,100129.97
2023-04-17T15:22:35.252Z,100109.69
2023-04-17T15:25:02.807Z,100105.31
2023-04-17T15:27:30.313Z,100145.91
2023-04-17T15:29:57.647Z,100145.88
2023-04-17T15:32:25.304Z,100152.94
2023-04-17T15:34:52.833Z,100084.00
2023-04-17T15:37:20.210Z,100021.22
2023-04-17T15:39:47.650Z,99992.09
2023-04-17T15:42:15.022Z,100006.19
2023-04-17T15:44:42.432Z,100011.47
2023-04-17T15:47:10.082Z,99983.19
2023-04-17T15:49:37.413Z,99982.13
2023-04-17T15:52:05.848Z,99934.50
2023-04-17T15:54:33.242Z,99905.25
2023-04-17T15:57:00.635Z,99914.91
2023-04-17T15:59:27.994Z,99928.09
2023-04-17T16:01:57.003Z,99921.00
2023-04-17T16:04:24.689Z,99861.09
2023-04-17T16:06:52.486Z,99856.72
2023-04-17T16:09:24.270Z,99870.00
2023-04-17T16:11:51.826Z,99905.41
2023-04-17T16:14:19.225Z,99911.59
2023-04-17T16:16:46.578Z,99911.66
2023-04-17T16:19:14.433Z,99917.81
2023-04-17T16:21:42.024Z,99913.47
2023-04-17T16:24:09.391Z,99906.38
2023-04-17T16:26:37.033Z,99923.16
2023-04-17T16:29:04.361Z,99917.88
2023-04-17T16:31:31.818Z,99923.22
2023-04-17T16:33:59.315Z,99923.22
2023-04-17T16:36:27.373Z,99932.03
2023-04-17T16:38:54.766Z,99918.81
2023-04-17T16:41:22.345Z,99940.94
2023-04-17T16:43:49.731Z,99961.22
2023-04-17T16:46:23.752Z,99946.22
2023-04-17T16:48:52.766Z,99947.00
2023-04-17T16:51:20.954Z,99955.00
2023-04-17T16:53:48.395Z,99937.34
2023-04-17T16:56:16.297Z,99928.56
2023-04-17T16:58:43.757Z,99917.97
2023-04-17T17:01:11.394Z,99891.50
2023-04-17T17:03:39.006Z,99900.38
2023-04-17T17:06:07.126Z,99901.22
2023-04-17T17:08:34.487Z,99898.59
2023-04-17T17:11:03.602Z,99895.94
2023-04-17T17:13:31.030Z,99857.09
2023-04-17T17:15:58.700Z,99844.66
2023-04-17T17:18:26.077Z,99815.59
2023-04-17T17:20:56.133Z,99831.53
2023-04-17T17:23:23.648Z,99817.38
2023-04-17T17:25:51.042Z,99821.81
2023-04-17T17:28:18.493Z,99826.22
2023-04-17T17:30:46.519Z,99829.78
2023-04-17T17:33:13.941Z,99850.16
2023-04-17T17:35:43.314Z,99864.34
2023-04-17T17:38:11.980Z,99885.56
2023-04-17T17:40:39.639Z,99888.31
2023-04-17T17:43:06.988Z,99903.34
2023-04-17T17:45:34.410Z,99918.38
2023-04-17T17:48:01.836Z,99918.41
2023-04-17T17:50:29.204Z,99912.25
2023-04-17T17:52:58.537Z,99897.28
2023-04-17T17:55:26.254Z,99879.63
2023-04-17T17:57:54.089Z,99856.66
2023-04-17T18:00:21.576Z,99866.34
2023-04-17T18:02:49.153Z,99858.50
2023-04-17T18:05:16.699Z,99867.31
2023-04-17T18:07:44.107Z,99855.88
2023-04-17T18:10:11.695Z,99869.16
2023-04-17T18:12:39.342Z,99882.41
2023-04-17T18:15:07.338Z,99879.78
2023-04-17T18:17:34.773Z,99879.78
2023-04-17T18:20:02.463Z,99891.28
2023-04-17T18:22:30.650Z,99914.25
2023-04-17T18:24:58.093Z,99929.28
2023-04-17T18:27:25.788Z,99932.81
2023-04-17T18:32:36.567Z,99973.44
2023-04-17T18:35:04.258Z,99976.97
2023-04-17T18:37:31.819Z,99985.78
2023-04-17T18:39:59.136Z,100002.56
2023-04-17T18:42:29.420Z,100017.56
2023-04-17T18:44:56.855Z,100021.09
2023-04-17T18:47:24.141Z,100041.44
2023-04-17T18:49:54.761Z,100061.72
2023-04-17T18:52:34.079Z,100089.09
2023-04-17T18:55:01.714Z,100111.16
2023-04-17T18:57:29.072Z,100143.81
2023-04-17T18:59:56.412Z,100157.03
2023-04-17T19:02:23.791Z,100183.53
2023-04-17T19:04:51.266Z,100192.38
2023-04-17T19:07:18.637Z,100206.47
2023-04-17T19:09:46.182Z,100213.53
2023-04-17T19:12:13.633Z,100222.31
2023-04-17T19:14:41.106Z,100217.91
2023-04-17T19:17:10.463Z,100228.50
2023-04-17T19:19:37.822Z,100232.00
2023-04-17T19:22:05.301Z,100243.47
2023-04-17T19:24:32.893Z,100236.41
2023-04-17T19:27:00.529Z,100254.94
2023-04-17T19:29:27.936Z,100267.28
2023-04-17T19:31:55.999Z,100272.56
2023-04-17T19:34:23.384Z,100299.03
2023-04-17T19:36:51.282Z,100321.00
2023-04-17T19:39:18.748Z,100346.56
2023-04-17T19:41:50.876Z,100350.94
2023-04-17T19:44:18.546Z,100380.94
2023-04-17T19:46:46.118Z,100381.72
2023-04-17T19:49:13.722Z,100393.16
2023-04-17T19:51:41.505Z,100405.53
2023-04-17T19:54:09.996Z,100407.34
2023-04-17T19:56:37.621Z,100407.31
2023-04-17T19:59:05.727Z,100407.25
2023-04-17T20:01:33.309Z,100417.88
2023-04-17T20:04:00.488Z,100409.03
2023-04-17T20:06:28.187Z,100411.63
2023-04-17T20:08:58.379Z,100413.44
2023-04-17T20:11:26.139Z,100416.06
2023-04-17T20:13:53.552Z,100421.34
2023-04-17T20:16:21.136Z,100417.78
2023-04-17T20:18:49.770Z,100423.91
2023-04-17T20:21:17.717Z,100436.22
2023-04-17T20:23:45.818Z,100427.38
2023-04-17T20:26:12.768Z,100436.22
2023-04-17T20:28:40.362Z,100437.19
2023-04-17T20:31:07.936Z,100432.75
2023-04-17T20:33:35.630Z,100435.41
2023-04-17T20:36:03.292Z,100435.38
2023-04-17T20:38:30.636Z,100428.31
2023-04-17T20:40:58.051Z,100421.25
2023-04-17T20:43:25.592Z,100429.22
2023-04-17T20:45:52.562Z,100426.50
2023-04-17T20:48:20.048Z,100430.03
2023-04-17T20:50:47.468Z,100427.38
2023-04-17T20:53:14.859Z,100433.44
2023-04-17T20:55:42.275Z,100445.88
2023-04-17T20:58:10.007Z,100443.19
2023-04-17T21:00:42.106Z,100446.75
2023-04-17T21:03:21.749Z,100433.56
2023-04-17T21:05:48.885Z,100438.81
2023-04-17T21:08:15.950Z,100428.16
2023-04-17T21:10:43.298Z,100436.06
2023-04-17T21:13:10.706Z,100447.56
2023-04-17T21:15:38.247Z,100444.78
2023-04-17T21:18:05.649Z,100450.97
2023-04-17T21:20:33.036Z,100439.53
2023-04-17T21:23:00.397Z,100443.00
2023-04-17T21:25:27.812Z,100449.16
2023-04-17T21:27:55.351Z,100440.38
2023-04-17T21:30:24.688Z,100435.94
2023-04-17T21:32:54.096Z,100433.28
2023-04-17T21:35:21.643Z,100431.47
2023-04-17T21:37:49.128Z,100425.25
2023-04-17T21:40:16.966Z,100425.25
2023-04-17T21:42:44.379Z,100422.72
2023-04-17T21:45:12.095Z,100417.47
2023-04-17T21:47:39.511Z,100411.28
2023-04-17T21:50:07.618Z,100424.47
2023-04-17T21:52:34.626Z,100436.72
2023-04-17T21:55:05.257Z,100435.75
2023-04-17T21:57:33.091Z,100437.47
2023-04-17T22:00:01.968Z,100433.09
2023-04-17T22:02:29.386Z,100414.66
2023-04-17T22:04:56.843Z,100397.06
2023-04-17T22:07:24.247Z,100394.41
2023-04-17T22:09:51.588Z,100388.16
2023-04-17T22:12:20.716Z,100386.41
2023-04-17T22:14:48.769Z,100394.28
2023-04-17T22:17:16.423Z,100391.63
2023-04-17T22:19:43.765Z,100397.78
2023-04-17T22:22:11.234Z,100402.16
2023-04-17T22:24:38.617Z,100396.84
2023-04-17T22:27:05.888Z,100401.22
2023-04-17T22:29:33.233Z,100410.06
2023-04-17T22:32:01.511Z,100395.09
2023-04-17T22:34:28.959Z,100392.44
2023-04-17T22:36:56.707Z,100400.34
2023-04-17T22:39:24.049Z,100389.72
2023-04-17T22:41:51.502Z,100379.13
2023-04-17T22:44:18.847Z,100360.66
2023-04-17T22:46:46.328Z,100335.06
2023-04-17T22:49:14.618Z,100297.19
2023-04-17T22:51:42.025Z,100276.97
2023-04-17T22:54:21.560Z,100247.91
2023-04-17T22:56:50.779Z,100225.00
2023-04-17T22:59:18.193Z,100220.59
2023-04-17T23:01:45.586Z,100211.78
2023-04-17T23:04:13.523Z,100211.78
2023-04-17T23:06:41.423Z,100223.22
2023-04-17T23:09:08.393Z,100216.13
2023-04-17T23:11:35.796Z,100220.53
2023-04-17T23:14:03.271Z,100218.75
2023-04-17T23:16:30.905Z,100217.84
2023-04-17T23:18:58.252Z,100223.13
2023-04-17T23:21:26.235Z,100216.94
2023-04-17T23:23:53.878Z,100220.41
2023-04-17T23:26:21.485Z,100224.78
2023-04-17T23:28:48.824Z,100232.66
2023-04-17T23:31:16.264Z,100225.63
2023-04-17T23:33:43.654Z,100233.53
2023-04-17T23:36:11.546Z,100248.47
2023-04-17T23:38:39.661Z,100251.06
2023-04-17T23:41:07.013Z,100247.50
2023-04-17T23:43:34.383Z,100227.22
2023-04-17T23:46:01.745Z,100236.88
2023-04-17T23:48:29.140Z,100233.28
2023-04-17T23:50:56.769Z,100225.28
2023-04-17T23:53:24.092Z,100220.00
2023-04-17T23:55:51.880Z,100210.19
2023-04-17T23:58:19.254Z,100211.94
